Time;durP1;ratioP1;P1;durP2;ratioP2;P2;SDS_P1;SDS_P2;PMS_P1;PMS_P2;Temp;Humidity;BMP_temperature;BMP_pressure;BME280_temperature;BME280_humidity;BME280_pressure;Samples;Min_cycle;Max_cycle;Signal;HPM_P1;HPM_P2
2022/08/16 00:00:55;;;;;;;8.38;5.03;;;;;;;22.91;75.94;100088.97;7386013;19;20493;-66
2022/08/16 00:03:22;;;;;;;9.77;5.95;;;;;;;22.91;77.46;100091.63;7387860;19;20399;-67
2022/08/16 00:05:49;;;;;;;6.97;5.95;;;;;;;22.89;77.68;100092.97;7382305;19;20011;-67
2022/08/16 00:08:23;;;;;;;8.15;5.70;;;;;;;22.83;76.73;100086.72;7387309;19;20102;-67
2022/08/16 00:11:05;;;;;;;8.38;5.47;;;;;;;22.78;76.59;100081.31;7387268;19;20551;-67
2022/08/16 00:13:32;;;;;;;6.75;5.32;;;;;;;22.75;76.69;100073.78;7387588;19;20010;-67
2022/08/16 00:16:08;;;;;;;7.53;5.78;;;;;;;22.73;77.30;100075.06;7385869;19;20025;-68
2022/08/16 00:18:55;;;;;;;8.23;4.88;;;;;;;22.69;77.28;100082.78;7384353;19;20534;-68
2022/08/16 00:21:23;;;;;;;7.50;5.38;;;;;;;22.67;76.75;100073.34;7385804;19;20041;-68
2022/08/16 00:23:50;;;;;;;8.32;5.90;;;;;;;22.68;77.52;100074.97;7385780;19;20482;-68
2022/08/16 00:26:26;;;;;;;10.60;5.38;;;;;;;22.65;76.65;100075.50;7385863;19;20038;-67
2022/08/16 00:29:12;;;;;;;7.50;5.63;;;;;;;22.59;76.55;100070.06;7385504;19;20014;-67
2022/08/16 00:31:43;;;;;;;7.88;5.25;;;;;;;22.57;77.49;100077.53;7386217;19;20027;-68
2022/08/16 00:34:27;;;;;;;8.75;5.70;;;;;;;22.59;77.63;100077.31;7381624;19;20018;-67
2022/08/16 00:37:12;;;;;;;10.10;6.88;;;;;;;22.59;76.56;100082.66;7380629;19;20019;-66
2022/08/16 00:39:44;;;;;;;11.93;6.80;;;;;;;22.62;78.25;100084.84;7384155;19;20083;-67
2022/08/16 00:42:13;;;;;;;7.80;5.30;;;;;;;22.57;75.47;100072.19;7385563;19;20366;-67
2022/08/16 00:45:08;;;;;;;7.03;5.63;;;;;;;22.58;76.81;100073.81;7387084;19;20078;-66
2022/08/16 00:47:44;;;;;;;8.90;5.63;;;;;;;22.55;77.69;100073.50;7385355;19;20026;-67
2022/08/16 00:50:20;;;;;;;8.23;4.75;;;;;;;22.51;76.14;100078.53;7383261;19;20018;-67
2022/08/16 00:53:04;;;;;;;10.80;6.65;;;;;;;22.51;78.12;100067.00;7385090;19;20545;-67
2022/08/16 00:55:31;;;;;;;7.93;6.85;;;;;;;22.49;77.70;100061.91;7384432;19;20014;-67
2022/08/16 00:58:05;;;;;;;8.90;6.15;;;;;;;22.53;77.97;100063.03;7385504;19;20014;-63
2022/08/16 01:00:42;;;;;;;8.90;6.07;;;;;;;22.55;78.32;100066.25;7386064;19;20363;-63
2022/08/16 01:03:11;;;;;;;7.90;5.65;;;;;;;22.56;78.65;100059.81;7387089;19;20216;-64
2022/08/16 01:05:39;;;;;;;7.65;5.85;;;;;;;22.54;78.05;100056.59;7383699;19;20011;-64
2022/08/16 01:08:08;;;;;;;6.93;5.93;;;;;;;22.53;77.50;100063.03;7385136;19;20033;-63
2022/08/16 01:10:55;;;;;;;7.85;6.57;;;;;;;22.52;77.91;100061.38;7384685;19;20018;-63
2022/08/16 01:13:29;;;;;;;14.07;5.82;;;;;;;22.52;76.51;100064.06;7383072;19;20015;-64
2022/08/16 01:16:07;;;;;;;8.27;6.50;;;;;;;22.52;77.80;100063.25;7383525;19;20873;-66
2022/08/16 01:18:43;;;;;;;8.25;6.78;;;;;;;22.51;76.51;100073.19;7385515;19;20458;-66
2022/08/16 01:21:24;;;;;;;8.10;6.43;;;;;;;22.50;76.81;100065.41;7383450;19;20320;-66
2022/08/16 01:24:13;;;;;;;7.25;6.25;;;;;;;22.47;76.17;100068.56;7383688;19;20137;-65
2022/08/16 01:27:12;;;;;;;19.02;13.80;;;;;;;22.45;76.67;100068.81;7385117;19;20091;-66
2022/08/16 01:29:53;;;;;;;9.25;8.18;;;;;;;22.49;75.60;100069.94;7385966;19;20011;-66
2022/08/16 01:32:29;;;;;;;9.23;6.95;;;;;;;22.50;76.25;100062.72;7384700;19;20021;-67
2022/08/16 01:34:59;;;;;;;13.40;7.53;;;;;;;22.45;75.27;100060.75;7382874;19;20011;-66
2022/08/16 01:37:28;;;;;;;11.20;7.00;;;;;;;22.46;75.95;100061.56;7382705;19;20014;-66
2022/08/16 01:40:04;;;;;;;11.38;7.07;;;;;;;22.45;75.28;100070.69;7385087;19;20022;-66
2022/08/16 01:42:33;;;;;;;8.43;7.25;;;;;;;22.44;75.53;100063.72;7384111;19;20218;-67
2022/08/16 01:45:00;;;;;;;15.30;10.57;;;;;;;22.45;76.20;100068.03;7383766;19;20029;-66
2022/08/16 01:47:28;;;;;;;12.95;8.63;;;;;;;22.46;76.33;100067.75;7381885;19;20019;-67
2022/08/16 01:49:58;;;;;;;10.93;8.23;;;;;;;22.47;75.89;100077.41;7381362;19;20084;-67
2022/08/16 01:52:45;;;;;;;9.68;8.55;;;;;;;22.46;75.66;100074.97;7383591;19;20018;-66
2022/08/16 01:55:16;;;;;;;10.50;8.48;;;;;;;22.43;75.54;100070.13;7382172;19;20029;-67
2022/08/16 01:57:44;;;;;;;15.07;8.85;;;;;;;22.43;76.22;100078.97;7382925;19;20043;-66
2022/08/16 02:00:22;;;;;;;12.10;9.43;;;;;;;22.40;76.29;100071.41;7382813;19;20018;-66
2022/08/16 02:02:55;;;;;;;18.52;13.65;;;;;;;22.42;77.27;100073.88;7383231;19;20014;-67
2022/08/16 02:05:23;;;;;;;18.48;10.90;;;;;;;22.45;77.28;100078.75;7381485;19;20053;-66
2022/08/16 02:07:50;;;;;;;13.15;10.07;;;;;;;22.42;76.50;100074.69;7383682;19;20389;-66
2022/08/16 02:10:20;;;;;;;13.45;9.68;;;;;;;22.42;76.66;100079.22;7391014;19;20097;-66
2022/08/16 02:12:51;;;;;;;14.90;9.93;;;;;;;22.40;77.04;100076.00;7391692;19;20014;-66
2022/08/16 02:15:27;;;;;;;13.73;9.63;;;;;;;22.37;77.04;100081.84;7392133;19;20420;-66
2022/08/16 02:17:57;;;;;;;13.98;9.07;;;;;;;22.35;76.96;100079.41;7389549;19;20058;-65
2022/08/16 02:20:29;;;;;;;17.67;12.88;;;;;;;22.36;78.64;100072.16;7389333;19;20019;-65
2022/08/16 02:22:58;;;;;;;14.48;11.07;;;;;;;22.36;77.44;100067.63;7390426;19;20006;-64
2022/08/16 02:25:32;;;;;;;15.23;10.35;;;;;;;22.34;77.07;100064.41;7385959;19;20059;-66
2022/08/16 02:28:19;;;;;;;18.95;11.40;;;;;;;22.29;77.77;100058.16;7392385;19;20050;-66
2022/08/16 02:30:50;;;;;;;16.10;11.07;;;;;;;22.29;78.15;100058.16;7391727;19;20007;-67
2022/08/16 02:33:19;;;;;;;14.13;11.50;;;;;;;22.27;78.03;100052.22;7391584;19;20397;-66
2022/08/16 02:36:07;;;;;;;16.42;11.20;;;;;;;22.24;78.15;100050.03;7386925;19;20481;-66
2022/08/16 02:38:54;;;;;;;17.60;12.63;;;;;;;22.25;80.01;100049.78;7389115;19;20486;-66
2022/08/16 02:41:22;;;;;;;18.70;11.98;;;;;;;22.25;79.91;100052.47;7389153;19;20599;-66
2022/08/16 02:43:59;;;;;;;18.55;11.90;;;;;;;22.24;80.05;100053.53;7390384;19;20090;-66
2022/08/16 02:46:27;;;;;;;14.73;11.82;;;;;;;22.21;80.27;100056.69;7391288;19;20134;-66
2022/08/16 02:49:00;;;;;;;16.60;11.70;;;;;;;22.20;80.23;100060.44;7388662;19;20079;-66
2022/08/16 02:51:27;;;;;;;18.67;13.07;;;;;;;22.15;80.06;100071.91;7389729;19;20034;-66
2022/08/16 02:54:00;;;;;;;16.45;11.98;;;;;;;22.13;80.58;100078.59;7391339;19;20027;-66
2022/08/16 02:56:28;;;;;;;28.77;20.10;;;;;;;22.10;80.01;100087.91;7388895;19;20014;-66
2022/08/16 02:58:58;;;;;;;16.30;13.18;;;;;;;22.11;80.76;100072.66;7389915;19;20011;-66
2022/08/16 03:01:29;;;;;;;19.58;14.00;;;;;;;22.13;81.08;100082.06;7390424;19;20455;-65
2022/08/16 03:04:04;;;;;;;17.38;12.77;;;;;;;22.13;80.44;100075.91;7388448;19;20070;-65
2022/08/16 03:06:52;;;;;;;20.27;14.15;;;;;;;22.11;80.58;100078.00;7389744;19;20249;-65
2022/08/16 03:09:22;;;;;;;19.77;12.65;;;;;;;;;;7389037;19;20481;-65
2022/08/16 03:11:49;;;;;;;20.00;13.65;;;;;;;22.08;80.80;100071.28;7390302;19;20045;-66
2022/08/16 03:14:17;;;;;;;16.80;12.77;;;;;;;22.10;81.25;100073.69;7389188;19;20017;-66
2022/08/16 03:16:49;;;;;;;17.92;13.65;;;;;;;;;;7388011;19;20014;-66
2022/08/16 03:19:28;;;;;;;22.45;14.27;;;;;;;22.14;81.27;100072.16;7385250;19;20010;-65
2022/08/16 03:22:15;;;;;;;16.23;12.60;;;;;;;22.17;81.71;100068.97;7387004;19;20044;-64
2022/08/16 03:24:55;;;;;;;22.42;13.90;;;;;;;22.14;81.13;100064.13;7387526;19;20112;-66
2022/08/16 03:27:26;;;;;;;22.02;14.10;;;;;;;22.12;81.28;100056.31;7385770;19;20010;-67
2022/08/16 03:29:58;;;;;;;18.55;13.13;;;;;;;22.13;81.21;100066.00;7389861;19;20033;-65
2022/08/16 03:32:25;;;;;;;18.23;13.25;;;;;;;22.15;81.52;100068.41;7388467;19;20468;-66
2022/08/16 03:34:52;;;;;;;25.73;20.42;;;;;;;22.17;82.56;100077.84;7387348;19;20516;-66
2022/08/16 03:37:20;;;;;;;19.83;14.40;;;;;;;22.18;82.56;100079.47;7386994;19;20021;-66
2022/08/16 03:39:47;;;;;;;20.38;14.85;;;;;;;22.16;81.75;100080.75;7388814;19;20015;-66
2022/08/16 03:42:22;;;;;;;20.27;12.95;;;;;;;22.12;81.55;100072.41;7387583;19;21335;-66
2022/08/16 03:44:49;;;;;;;17.35;13.57;;;;;;;22.10;81.67;100071.00;7386958;19;20518;-66
2022/08/16 03:47:19;;;;;;;17.92;14.35;;;;;;;22.09;81.63;100072.91;7386999;19;20011;-66
2022/08/16 03:49:47;;;;;;;17.48;14.13;;;;;;;22.09;81.58;100075.59;7386296;19;20058;-66
2022/08/16 03:52:19;;;;;;;27.77;19.77;;;;;;;22.10;81.63;100076.38;7387775;19;20014;-65
2022/08/16 03:54:50;;;;;;;20.15;15.20;;;;;;;;;;7386705;19;20536;-67
2022/08/16 03:57:26;;;;;;;20.77;14.27;;;;;;;22.13;81.83;100070.53;7387083;19;20562;-66
2022/08/16 04:00:12;;;;;;;21.60;14.63;;;;;;;22.14;81.40;100064.13;7388504;19;20372;-66
2022/08/16 04:03:05;;;;;;;20.40;14.13;;;;;;;22.15;81.60;100065.72;7388686;19;20022;-65
2022/08/16 04:05:35;;;;;;;20.27;14.02;;;;;;;;;;7385025;19;20017;-65
2022/08/16 04:08:04;;;;;;;18.15;13.77;;;;;;;22.08;81.21;100073.16;7387318;19;20033;-65
2022/08/16 04:10:54;;;;;;;18.45;14.27;;;;;;;22.05;81.79;100073.63;7384536;19;20026;-66
2022/08/16 04:13:24;;;;;;;18.58;15.02;;;;;;;22.04;82.16;100078.19;7387854;19;20487;-66
2022/08/16 04:16:11;;;;;;;21.30;14.48;;;;;;;22.07;82.29;100082.25;7388066;19;20014;-67
2022/08/16 04:18:54;;;;;;;22.35;14.80;;;;;;;22.05;81.75;100077.13;7385246;19;20078;-66
2022/08/16 04:21:35;;;;;;;18.80;14.68;;;;;;;22.05;82.14;100079.81;7384207;19;20010;-66
2022/08/16 04:24:14;;;;;;;18.13;13.85;;;;;;;22.05;82.12;100077.13;7387331;19;20581;-67
2022/08/16 04:26:42;;;;;;;18.30;13.65;;;;;;;22.04;82.19;100088.91;7386182;19;20011;-66
2022/08/16 04:29:13;;;;;;;22.58;13.27;;;;;;;22.04;81.69;100082.75;7387532;19;20034;-66
2022/08/16 04:31:44;;;;;;;22.47;16.53;;;;;;;22.05;82.84;100084.34;7387418;19;20015;-66
2022/08/16 04:34:11;;;;;;;22.52;16.02;;;;;;;22.04;82.11;100082.75;7385420;19;20628;-66
2022/08/16 04:36:38;;;;;;;18.45;14.70;;;;;;;22.06;82.65;100097.50;7385498;19;20014;-66
2022/08/16 04:39:05;;;;;;;19.10;14.65;;;;;;;22.06;82.72;100092.16;7384768;19;20022;-66
2022/08/16 04:41:34;;;;;;;20.08;14.63;;;;;;;22.07;81.88;100103.69;7384820;19;20089;-67
2022/08/16 04:44:04;;;;;;;20.17;15.20;;;;;;;22.03;81.87;100103.38;7386921;19;20049;-65
2022/08/16 04:46:52;;;;;;;19.33;14.90;;;;;;;22.02;81.83;100099.06;7386240;19;20063;-66
2022/08/16 04:49:29;;;;;;;26.05;18.48;;;;;;;22.03;82.51;100103.38;7383739;19;20538;-66
2022/08/16 04:52:11;;;;;;;;;;;;;;;22.03;82.58;100106.06;7386947;19;20010;-66
2022/08/16 04:54:58;;;;;;;22.70;15.00;;;;;;;22.03;82.55;100105.22;7385436;19;19911;-65
2022/08/16 04:57:25;;;;;;;20.77;15.25;;;;;;;22.04;82.88;100106.88;7385828;19;20745;-66
2022/08/16 04:59:56;;;;;;;22.35;15.07;;;;;;;22.04;82.16;100114.91;7386633;19;20006;-67
2022/08/16 05:02:23;;;;;;;20.90;14.70;;;;;;;22.06;82.58;100112.78;7385767;19;20342;-65
2022/08/16 05:05:11;;;;;;;24.30;15.45;;;;;;;22.05;82.23;100111.97;7384242;19;20021;-66
2022/08/16 05:07:44;;;;;;;23.23;14.85;;;;;;;22.02;82.49;100107.09;7385654;19;20037;-67
2022/08/16 05:10:27;;;;;;;25.40;17.55;;;;;;;22.03;82.88;100113.28;7384917;19;20014;-68
2022/08/16 05:12:57;;;;;;;22.60;15.98;;;;;;;22.04;83.21;100112.22;7385108;19;20282;-65
2022/08/16 05:15:25;;;;;;;22.42;14.85;;;;;;;22.02;82.90;100106.28;7386454;19;20010;-66
2022/08/16 05:17:54;;;;;;;19.50;15.43;;;;;;;21.98;82.50;100116.69;7384185;19;20006;-66
2022/08/16 05:20:26;;;;;;;22.00;15.18;;;;;;;21.99;82.74;100114.84;7384070;19;20090;-66
2022/08/16 05:23:11;;;;;;;20.85;15.38;;;;;;;22.01;82.81;100110.84;7385701;19;20455;-66
2022/08/16 05:25:40;;;;;;;23.00;15.65;;;;;;;22.04;82.75;100125.63;7384919;19;20011;-65
2022/08/16 05:28:16;;;;;;;22.95;15.18;;;;;;;22.04;82.09;100128.31;7385381;19;20014;-66
2022/08/16 05:30:44;;;;;;;23.17;16.73;;;;;;;22.04;82.13;100123.75;7385223;19;20018;-67
2022/08/16 05:33:15;;;;;;;;;;;;;;;22.07;82.84;100125.94;7385685;19;20021;-67
2022/08/16 05:35:44;;;;;;;21.48;14.95;;;;;;;22.05;82.33;100130.72;7381785;19;19919;-67
2022/08/16 05:38:26;;;;;;;22.95;14.75;;;;;;;22.06;82.79;100136.91;7384515;19;20102;-66
2022/08/16 05:41:06;;;;;;;21.13;14.07;;;;;;;22.07;82.70;100142.03;7385803;19;20053;-67
2022/08/16 05:43:36;;;;;;;21.23;14.65;;;;;;;22.06;82.82;100135.03;7382481;19;20010;-66
2022/08/16 05:46:18;;;;;;;20.55;14.88;;;;;;;22.07;82.52;100130.47;7383498;19;20010;-67
2022/08/16 05:48:57;;;;;;;26.08;18.27;;;;;;;22.07;83.16;100127.81;7380929;19;20094;-65
2022/08/16 05:51:31;;;;;;;23.20;16.48;;;;;;;22.05;82.79;100136.06;7383070;19;20015;-65
2022/08/16 05:54:10;;;;;;;20.25;15.27;;;;;;;22.07;83.00;100141.19;7385770;19;20481;-65
2022/08/16 05:56:41;;;;;;;22.50;15.95;;;;;;;22.07;82.55;100133.97;7384465;19;20453;-65
2022/08/16 05:59:09;;;;;;;20.08;15.55;;;;;;;22.11;83.04;100136.97;7382962;19;20018;-65
2022/08/16 06:01:37;;;;;;;19.38;15.63;;;;;;;22.13;82.60;100124.97;7355878;19;20015;-66
2022/08/16 06:04:06;;;;;;;26.70;20.30;;;;;;;22.14;82.13;100142.66;7377724;19;20082;-66
2022/08/16 06:06:41;;;;;;;25.35;15.30;;;;;;;22.14;82.12;100148.03;7382942;19;20025;-66
2022/08/16 06:09:21;;;;;;;;;;;;;;;22.16;82.51;100137.84;7383251;19;20017;-66
2022/08/16 06:11:48;;;;;;;22.25;15.32;;;;;;;22.14;81.81;100141.84;7383594;19;19936;-66
2022/08/16 06:14:16;;;;;;;26.17;16.38;;;;;;;22.14;82.51;100131.94;7383603;19;20114;-66
2022/08/16 06:16:43;;;;;;;28.02;15.45;;;;;;;22.14;82.54;100126.59;7385046;19;20074;-66
2022/08/16 06:19:16;;;;;;;21.42;16.60;;;;;;;22.10;82.25;100124.63;7379627;19;20037;-66
2022/08/16 06:21:45;;;;;;;21.15;15.95;;;;;;;22.09;82.00;100133.75;7383314;19;20007;-66
2022/08/16 06:24:21;;;;;;;28.58;19.20;;;;;;;22.10;82.29;100132.66;7381992;19;20010;-65
2022/08/16 06:27:08;;;;;;;26.63;16.85;;;;;;;22.09;83.11;100137.25;7381350;19;20025;-65
2022/08/16 06:29:35;;;;;;;19.58;14.88;;;;;;;22.10;82.30;100140.69;7383940;19;20033;-65
2022/08/16 06:32:05;;;;;;;23.15;15.25;;;;;;;22.11;82.33;100142.31;7382504;19;20034;-66
2022/08/16 06:34:33;;;;;;;22.08;15.70;;;;;;;22.12;82.12;100155.50;7378774;19;20607;-66
2022/08/16 06:37:20;;;;;;;22.10;15.25;;;;;;;22.15;82.41;100155.00;7381226;19;20375;-66
2022/08/16 06:39:47;;;;;;;20.17;14.75;;;;;;;22.17;82.36;100157.44;7381850;19;20022;-66
2022/08/16 06:42:16;;;;;;;22.67;14.43;;;;;;;22.18;82.28;100146.47;7381912;19;20011;-65
2022/08/16 06:44:45;;;;;;;30.02;22.25;;;;;;;22.20;82.09;100156.94;7379959;19;20011;-66
2022/08/16 06:47:13;;;;;;;20.05;15.70;;;;;;;22.23;83.00;100158.31;7381541;19;20787;-65
2022/08/16 06:49:43;;;;;;;20.63;15.63;;;;;;;22.24;81.90;100157.28;7379637;19;20015;-65
2022/08/16 06:52:20;;;;;;;26.58;19.33;;;;;;;22.26;81.81;100158.63;7379809;19;20014;-66
2022/08/16 06:55:09;;;;;;;21.98;15.98;;;;;;;22.31;82.48;100163.25;7383937;19;20573;-67
2022/08/16 06:57:40;;;;;;;27.17;14.10;;;;;;;22.36;82.32;100163.34;7387957;19;20103;-65
2022/08/16 07:00:12;;;;;;;24.73;18.70;;;;;;;22.39;82.70;100161.00;7390318;19;20017;-65
2022/08/16 07:02:52;;;;;;;26.92;17.20;;;;;;;22.44;82.83;100162.94;7387171;19;20516;-66
2022/08/16 07:05:20;;;;;;;25.83;16.55;;;;;;;22.45;81.54;100170.72;7386224;19;20368;-66
2022/08/16 07:08:10;;;;;;;21.33;15.35;;;;;;;22.45;81.58;100175.28;7388309;19;20543;-66
2022/08/16 07:10:38;;;;;;;27.02;16.25;;;;;;;22.42;81.72;100175.75;7389868;19;20018;-66
2022/08/16 07:13:07;;;;;;;26.20;16.65;;;;;;;22.44;81.09;100181.69;7384766;19;20154;-67
2022/08/16 07:15:42;;;;;;;24.95;16.20;;;;;;;22.43;81.48;100180.06;7389218;19;20027;-67
2022/08/16 07:18:19;;;;;;;23.27;16.33;;;;;;;22.42;81.39;100184.63;7386132;19;20435;-66
2022/08/16 07:20:48;;;;;;;21.10;16.13;;;;;;;22.42;81.57;100184.63;7383794;19;20046;-66
2022/08/16 07:23:16;;;;;;;25.23;15.82;;;;;;;22.44;81.57;100170.97;7387025;19;20399;-67
2022/08/16 07:25:44;;;;;;;20.95;15.07;;;;;;;22.46;81.29;100174.22;7388921;19;20534;-67
2022/08/16 07:28:13;;;;;;;21.20;14.73;;;;;;;22.43;80.94;100175.53;7387762;19;20090;-65
2022/08/16 07:30:49;;;;;;;23.83;17.38;;;;;;;22.42;81.26;100173.09;7387822;19;20015;-66
2022/08/16 07:33:17;;;;;;;21.95;15.88;;;;;;;22.38;80.71;100170.09;7384066;19;20015;-66
2022/08/16 07:36:05;;;;;;;21.77;14.68;;;;;;;22.36;80.78;100171.38;7382206;19;20017;-65
2022/08/16 07:38:32;;;;;;;27.65;19.67;;;;;;;22.35;81.37;100169.78;7383191;19;20014;-66
2022/08/16 07:41:00;;;;;;;20.98;16.52;;;;;;;22.41;82.13;100168.78;7386421;19;20789;-65
2022/08/16 07:43:36;;;;;;;22.20;16.00;;;;;;;22.43;81.18;100172.84;7387027;19;20011;-66
2022/08/16 07:46:08;;;;;;;26.55;17.45;;;;;;;22.48;81.49;100183.66;7387427;19;20957;-66
2022/08/16 07:48:55;;;;;;;22.90;16.63;;;;;;;22.57;81.28;100192.06;7383638;19;20010;-66
2022/08/16 07:51:31;;;;;;;21.80;15.77;;;;;;;22.65;80.58;100190.84;7388300;19;20035;-66
2022/08/16 07:54:03;;;;;;;27.10;19.63;;;;;;;22.73;80.61;100210.03;7388589;19;20017;-70
2022/08/16 07:56:37;;;;;;;22.80;16.38;;;;;;;22.77;79.91;100208.47;7389182;19;20466;-66
2022/08/16 07:59:05;;;;;;;23.17;15.93;;;;;;;22.84;79.51;100209.13;7385636;19;20513;-65
2022/08/16 08:01:33;;;;;;;20.92;14.48;;;;;;;22.92;79.01;100218.59;7388181;19;20021;-65
2022/08/16 08:04:02;;;;;;;25.70;17.92;;;;;;;23.00;79.71;100226.22;7386405;19;20470;-67
2022/08/16 08:06:31;;;;;;;20.92;14.48;;;;;;;23.05;78.62;100218.25;7383673;19;20134;-66
2022/08/16 08:08:59;;;;;;;18.50;13.50;;;;;;;23.10;78.11;100218.31;7387859;19;20037;-66
2022/08/16 08:11:28;;;;;;;18.23;13.60;;;;;;;23.08;77.66;100220.41;7387108;19;20489;-66
2022/08/16 08:13:59;;;;;;;24.02;13.90;;;;;;;23.08;76.80;100220.41;7387008;19;20018;-65
2022/08/16 08:16:31;;;;;;;20.38;13.40;;;;;;;23.06;76.28;100224.44;7385969;19;20381;-66
2022/08/16 08:19:01;;;;;;;18.40;13.75;;;;;;;23.08;76.75;100227.66;7379448;19;20652;-65
2022/08/16 08:21:31;;;;;;;16.70;12.77;;;;;;;23.05;77.14;100226.28;7382963;19;20007;-66
2022/08/16 08:24:19;;;;;;;16.15;11.68;;;;;;;23.05;76.93;100228.97;7385095;19;20007;-66
2022/08/16 08:26:46;;;;;;;19.55;13.40;;;;;;;23.03;75.18;100236.47;7385338;19;20462;-65
2022/08/16 08:29:17;;;;;;;16.00;12.60;;;;;;;23.01;75.62;100239.38;7383318;19;20010;-66
2022/08/16 08:31:48;;;;;;;17.05;11.82;;;;;;;23.01;75.76;100246.63;7386969;19;20019;-66
2022/08/16 08:34:17;;;;;;;17.83;12.98;;;;;;;23.02;76.60;100249.06;7382473;19;20006;-66
2022/08/16 08:36:44;;;;;;;17.38;11.82;;;;;;;23.04;76.29;100240.78;7381120;19;20017;-67
2022/08/16 08:39:14;;;;;;;17.88;12.02;;;;;;;23.05;75.79;100249.63;7382175;19;20321;-65
2022/08/16 08:41:46;;;;;;;18.90;11.55;;;;;;;23.11;75.70;100262.06;7383309;19;20077;-66
2022/08/16 08:44:15;;;;;;;15.25;12.02;;;;;;;23.13;75.88;100260.75;7385360;19;20037;-65
2022/08/16 08:47:01;;;;;;;18.80;11.77;;;;;;;23.10;75.52;100266.63;7385676;19;20021;-66
2022/08/16 08:49:36;;;;;;;19.27;12.50;;;;;;;23.14;76.29;100267.75;7382718;19;20581;-67
2022/08/16 08:52:21;;;;;;;20.33;12.00;;;;;;;23.19;76.51;100275.88;7380545;19;20499;-66
2022/08/16 08:55:06;;;;;;;15.87;11.73;;;;;;;23.22;76.25;100285.28;7382872;19;20630;-66
2022/08/16 08:57:45;;;;;;;17.42;12.27;;;;;;;23.25;76.86;100274.88;7383391;19;21873;-65
2022/08/16 09:00:16;;;;;;;17.13;11.85;;;;;;;23.28;76.63;100281.59;7385271;19;20022;-66
2022/08/16 09:02:47;;;;;;;20.90;13.70;;;;;;;23.28;76.51;100281.59;7383861;19;20011;-66
2022/08/16 09:05:19;;;;;;;15.55;10.93;;;;;;;23.32;76.24;100282.72;7382259;19;20369;-66
2022/08/16 09:07:48;;;;;;;16.23;11.10;;;;;;;23.36;76.07;100284.69;7383220;19;20011;-65
2022/08/16 09:10:27;;;;;;;17.40;11.02;;;;;;;23.37;75.62;100288.97;7378225;19;20665;-65
2022/08/16 09:12:56;;;;;;;16.77;10.98;;;;;;;23.39;75.81;100286.84;7378502;19;20585;-65
2022/08/16 09:15:23;;;;;;;18.80;11.10;;;;;;;23.40;75.42;100285.00;7384253;19;20011;-65
2022/08/16 09:17:51;;;;;;;19.15;13.88;;;;;;;23.41;75.50;100286.63;7382117;19;20333;-65
2022/08/16 09:20:28;;;;;;;16.63;10.18;;;;;;;23.46;75.52;100292.09;7380293;19;20010;-66
2022/08/16 09:22:56;;;;;;;11.90;9.65;;;;;;;23.48;74.28;100294.50;7381794;19;20006;-67
2022/08/16 09:25:24;;;;;;;16.45;10.25;;;;;;;23.48;73.76;100289.94;7381706;19;20082;-64
2022/08/16 09:28:01;;;;;;;15.25;9.32;;;;;;;23.51;74.07;100302.88;7383136;19;20035;-66
2022/08/16 09:30:36;;;;;;;15.77;10.45;;;;;;;23.49;73.79;100301.50;7383565;19;20014;-66
2022/08/16 09:33:13;;;;;;;13.70;9.95;;;;;;;23.45;74.70;100306.56;7384800;19;20550;-67
2022/08/16 09:35:40;;;;;;;15.55;10.38;;;;;;;23.44;75.18;100304.91;7379579;19;20020;-65
2022/08/16 09:38:10;;;;;;;13.38;10.85;;;;;;;23.46;75.49;100307.38;7380941;19;20015;-65
2022/08/16 09:40:57;;;;;;;16.27;10.98;;;;;;;23.43;75.22;100308.66;7383491;19;20011;-65
2022/08/16 09:43:24;;;;;;;11.98;9.45;;;;;;;23.43;75.66;100306.78;7382295;19;20065;-64
2022/08/16 09:46:11;;;;;;;16.48;10.18;;;;;;;23.44;76.07;100302.22;7382320;19;20025;-64
2022/08/16 09:48:58;;;;;;;15.35;10.15;;;;;;;23.45;75.85;100293.13;7381196;19;20103;-64
2022/08/16 09:51:30;;;;;;;18.57;10.40;;;;;;;23.46;76.30;100289.41;7382802;19;20490;-66
2022/08/16 09:54:04;;;;;;;16.13;9.38;;;;;;;23.46;76.35;100289.41;7383557;19;20036;-64
2022/08/16 09:56:33;;;;;;;13.23;8.35;;;;;;;23.41;75.42;100300.06;7384032;19;20804;-65
2022/08/16 09:59:04;;;;;;;12.95;9.55;;;;;;;23.38;75.33;100301.34;7381039;19;20014;-64
2022/08/16 10:01:40;;;;;;;14.57;9.57;;;;;;;23.37;76.47;100307.78;7379688;19;20017;-63
2022/08/16 10:04:13;;;;;;;14.13;8.35;;;;;;;23.35;75.63;100306.41;7380602;19;20371;-63
2022/08/16 10:07:02;;;;;;;14.00;7.10;;;;;;;23.33;75.44;100306.66;7382794;19;20006;-63
2022/08/16 10:09:43;;;;;;;9.63;7.15;;;;;;;23.34;75.88;100319.03;7383510;19;20021;-63
2022/08/16 10:15:09;;;;;;;13.23;8.73;;;;;;;23.36;76.04;100319.59;7381568;19;20015;-64
2022/08/16 10:17:44;;;;;;;14.93;8.73;;;;;;;23.33;76.09;100319.25;7383967;19;20267;-63
2022/08/16 10:20:33;;;;;;;14.30;8.57;;;;;;;23.31;76.59;100332.16;7379192;19;20374;-66
2022/08/16 10:23:03;;;;;;;17.48;9.63;;;;;;;23.30;76.71;100333.19;7378286;19;20014;-65
2022/08/16 10:25:39;;;;;;;16.83;11.15;;;;;;;23.29;77.54;100326.19;7380380;19;20464;-65
2022/08/16 10:28:28;;;;;;;14.70;9.88;;;;;;;23.30;77.69;100333.19;7382433;19;20066;-65
2022/08/16 10:31:02;;;;;;;12.70;9.10;;;;;;;23.26;77.39;100330.19;7385184;19;20039;-65
2022/08/16 10:33:31;;;;;;;15.15;8.77;;;;;;;23.22;77.77;100329.06;7388363;19;20562;-65
2022/08/16 10:36:04;;;;;;;15.55;9.43;;;;;;;23.20;77.70;100335.75;7386399;19;21381;-65
2022/08/16 10:38:35;;;;;;;14.15;9.88;;;;;;;23.15;77.58;100338.38;7388562;19;20019;-66
2022/08/16 10:41:04;;;;;;;14.57;9.15;;;;;;;23.08;78.04;100343.91;7389726;19;20031;-65
2022/08/16 10:43:34;;;;;;;14.73;10.00;;;;;;;23.05;78.81;100347.09;7388368;19;20026;-65
2022/08/16 10:46:03;;;;;;;17.98;10.45;;;;;;;23.02;79.85;100359.13;7390048;19;20023;-65
2022/08/16 10:48:49;;;;;;;21.40;10.95;;;;;;;22.96;80.93;100376.19;7387862;19;20009;-65
2022/08/16 10:51:17;;;;;;;16.77;7.63;;;;;;;22.87;78.54;100374.19;7388498;19;20302;-65
2022/08/16 10:53:45;;;;;;;12.48;7.75;;;;;;;22.76;78.84;100383.13;7386946;19;20853;-65
2022/08/16 10:56:12;;;;;;;15.93;8.25;;;;;;;22.62;79.70;100382.59;7385001;19;20035;-66
2022/08/16 10:58:59;;;;;;;14.75;9.45;;;;;;;22.51;81.43;100386.97;7386276;19;20011;-64
2022/08/16 11:01:46;;;;;;;22.75;11.07;;;;;;;22.40;84.27;100387.84;7389055;19;20029;-64
2022/08/16 11:04:33;;;;;;;24.27;11.80;;;;;;;22.28;85.43;100383.63;7383950;19;20237;-65
2022/08/16 11:07:20;;;;;;;30.77;12.60;;;;;;;22.23;87.20;100380.84;7388162;19;20034;-65
2022/08/16 11:10:08;;;;;;;23.27;12.13;;;;;;;22.16;88.42;100387.16;7387043;19;20011;-68
2022/08/16 11:12:55;;;;;;;23.52;11.15;;;;;;;22.08;88.16;100378.69;7387873;19;20352;-65
2022/08/16 11:15:23;;;;;;;15.73;10.63;;;;;;;22.03;88.08;100383.94;7387001;19;20022;-64
2022/08/16 11:17:53;;;;;;;18.55;10.65;;;;;;;21.97;87.68;100390.25;7386223;19;20006;-64
2022/08/16 11:20:42;;;;;;;20.75;13.05;;;;;;;21.95;89.41;100395.84;7387196;19;20033;-66
2022/08/16 11:23:14;;;;;;;19.38;12.55;;;;;;;21.96;90.51;100407.38;7388605;19;20010;-65
2022/08/16 11:25:42;;;;;;;22.83;12.43;;;;;;;21.92;90.96;100406.22;7386375;19;20442;-65
2022/08/16 11:28:29;;;;;;;15.93;11.48;;;;;;;21.92;91.39;100407.03;7388722;19;20006;-67
2022/08/16 11:31:16;;;;;;;21.85;11.75;;;;;;;21.89;91.03;100410.16;7388247;19;20037;-64
2022/08/16 11:33:43;;;;;;;15.77;10.05;;;;;;;21.90;91.38;100397.56;7387609;19;20599;-66
2022/08/16 11:36:21;;;;;;;14.02;9.40;;;;;;;21.89;90.75;100402.13;7386849;19;20015;-62
2022/08/16 11:38:54;;;;;;;14.30;10.07;;;;;;;21.90;90.28;100405.63;7385758;19;20010;-64
2022/08/16 11:41:23;;;;;;;12.68;9.57;;;;;;;21.85;89.44;100394.78;7384764;19;20459;-64
2022/08/16 11:43:58;;;;;;;12.40;9.48;;;;;;;21.86;89.93;100404.47;7386805;19;20014;-63
2022/08/16 11:46:26;;;;;;;15.80;10.15;;;;;;;21.86;90.78;100397.25;7388495;19;20376;-64
2022/08/16 11:49:12;;;;;;;15.20;10.30;;;;;;;21.87;91.68;100408.78;7386232;19;20018;-62